createdAt,value
2022-07-30T00:01:15.895Z,1.60
2022-07-30T00:03:42.821Z,1.73
2022-07-30T00:06:10.009Z,2.07
2022-07-30T00:08:37.907Z,1.90
2022-07-30T00:11:05.202Z,1.80
2022-07-30T00:13:32.037Z,1.80
2022-07-30T00:15:59.339Z,1.90
2022-07-30T00:18:26.133Z,1.80
2022-07-30T00:20:53.160Z,1.70
2022-07-30T00:23:19.955Z,2.00
2022-07-30T00:25:48.149Z,1.87
2022-07-30T00:28:14.923Z,2.20
2022-07-30T00:30:43.195Z,1.67
2022-07-30T00:33:10.053Z,1.87
2022-07-30T00:35:37.789Z,2.07
2022-07-30T00:38:04.608Z,1.67
2022-07-30T00:40:31.395Z,2.10
2022-07-30T00:42:58.193Z,1.93
2022-07-30T00:45:25.291Z,1.90
2022-07-30T00:47:52.163Z,2.00
2022-07-30T00:50:19.301Z,2.03
2022-07-30T00:52:48.412Z,2.00
2022-07-30T00:55:16.820Z,1.77
2022-07-30T00:57:43.779Z,1.90
2022-07-30T01:00:14.139Z,1.93
2022-07-30T01:02:41.315Z,1.83
2022-07-30T01:05:08.563Z,1.90
2022-07-30T01:07:35.443Z,2.03
2022-07-30T01:10:02.410Z,2.20
2022-07-30T01:12:29.309Z,1.90
2022-07-30T01:14:58.263Z,2.23
2022-07-30T01:17:25.282Z,2.00
2022-07-30T01:19:59.140Z,2.17
2022-07-30T01:22:34.255Z,1.77
2022-07-30T01:25:15.300Z,2.10
2022-07-30T01:27:49.211Z,2.07
2022-07-30T01:30:21.017Z,2.30
2022-07-30T01:32:48.283Z,1.70
2022-07-30T01:35:15.689Z,1.73
2022-07-30T01:37:42.678Z,2.10
2022-07-30T01:40:10.128Z,2.00
2022-07-30T01:42:36.948Z,2.30
2022-07-30T01:45:05.400Z,2.20
2022-07-30T01:47:33.980Z,2.07
2022-07-30T01:50:00.820Z,1.83
2022-07-30T01:52:27.969Z,2.00
2022-07-30T01:54:55.357Z,2.03
2022-07-30T01:57:23.552Z,1.80
2022-07-30T01:59:54.442Z,2.20
2022-07-30T02:02:21.498Z,2.30
2022-07-30T02:04:51.179Z,1.90
2022-07-30T02:07:27.663Z,2.30
2022-07-30T02:10:17.730Z,2.07
2022-07-30T02:12:48.975Z,1.83
2022-07-30T02:15:25.965Z,2.00
2022-07-30T02:18:13.608Z,2.10
2022-07-30T02:20:40.788Z,2.43
2022-07-30T02:23:10.524Z,2.10
2022-07-30T02:25:38.984Z,2.00
2022-07-30T02:28:08.189Z,2.23
2022-07-30T02:30:36.886Z,1.97
2022-07-30T02:33:10.621Z,2.30
2022-07-30T02:35:38.971Z,2.63
2022-07-30T02:38:05.856Z,1.87
2022-07-30T02:40:34.016Z,2.13
2022-07-30T02:43:00.819Z,2.00
2022-07-30T02:45:27.705Z,1.83
2022-07-30T02:48:31.206Z,1.90
2022-07-30T02:51:02.067Z,2.23
2022-07-30T02:53:28.896Z,1.90
2022-07-30T02:55:56.104Z,2.00
2022-07-30T02:58:24.242Z,2.37
2022-07-30T03:00:52.291Z,2.20
2022-07-30T03:03:19.111Z,2.00
2022-07-30T03:05:46.270Z,2.20
2022-07-30T03:08:14.650Z,2.10
2022-07-30T03:10:46.626Z,2.30
2022-07-30T03:13:13.479Z,2.20
2022-07-30T03:15:44.181Z,2.00
2022-07-30T03:18:12.323Z,1.97
2022-07-30T03:20:39.151Z,2.50
2022-07-30T03:23:06.032Z,2.40
2022-07-30T03:25:33.232Z,1.90
2022-07-30T03:28:00.990Z,2.43
2022-07-30T03:30:27.780Z,2.40
2022-07-30T03:32:55.036Z,2.07
2022-07-30T03:35:22.589Z,2.17
2022-07-30T03:37:49.704Z,2.10
2022-07-30T03:40:18.290Z,2.40
2022-07-30T03:42:45.768Z,1.83
2022-07-30T03:45:13.982Z,2.17
2022-07-30T03:47:42.250Z,1.90
2022-07-30T03:50:10.687Z,2.40
2022-07-30T03:52:40.851Z,2.13
2022-07-30T03:55:09.884Z,2.27
2022-07-30T03:57:38.162Z,1.67
2022-07-30T04:00:26.501Z,1.90
2022-07-30T04:02:54.536Z,2.00
2022-07-30T04:05:21.488Z,2.20
2022-07-30T04:07:48.464Z,2.20
2022-07-30T04:10:15.826Z,2.20
2022-07-30T04:12:42.881Z,2.43
2022-07-30T04:16:05.860Z,2.27
2022-07-30T04:18:00.743Z,1.90
2022-07-30T04:20:36.120Z,2.00
2022-07-30T04:23:03.342Z,2.10
2022-07-30T04:25:32.088Z,2.10
2022-07-30T04:28:03.531Z,2.20
2022-07-30T04:30:34.965Z,2.23
2022-07-30T04:33:03.517Z,2.57
2022-07-30T04:35:51.627Z,2.57
2022-07-30T04:38:19.493Z,2.17
2022-07-30T04:40:46.413Z,2.60
2022-07-30T04:43:13.783Z,2.40
2022-07-30T04:45:41.896Z,2.40
2022-07-30T04:48:08.704Z,1.80
2022-07-30T04:50:38.634Z,2.33
2022-07-30T04:53:06.973Z,2.80
2022-07-30T04:55:35.825Z,2.17
2022-07-30T04:58:03.702Z,2.17
2022-07-30T05:00:32.491Z,2.10
2022-07-30T05:02:59.657Z,1.60
2022-07-30T05:05:28.126Z,2.13
2022-07-30T05:07:55.019Z,2.20
2022-07-30T05:10:22.237Z,2.20
2022-07-30T05:12:50.571Z,1.90
2022-07-30T05:15:17.679Z,2.13
2022-07-30T05:17:45.286Z,2.17
2022-07-30T05:20:12.447Z,2.33
2022-07-30T05:22:39.264Z,2.00
2022-07-30T05:25:16.086Z,2.03
2022-07-30T05:27:43.513Z,2.20
2022-07-30T05:30:13.968Z,2.53
2022-07-30T05:32:41.476Z,2.37
2022-07-30T05:35:08.693Z,2.33
2022-07-30T05:37:36.777Z,2.50
2022-07-30T05:40:04.035Z,2.30
2022-07-30T05:42:31.011Z,2.23
2022-07-30T05:44:57.848Z,1.87
2022-07-30T05:47:24.848Z,2.20
2022-07-30T05:49:51.699Z,2.20
2022-07-30T05:52:18.657Z,2.23
2022-07-30T05:54:45.603Z,2.10
2022-07-30T05:57:12.483Z,1.90
2022-07-30T05:59:39.271Z,2.27
2022-07-30T06:02:06.937Z,2.03
2022-07-30T06:04:35.707Z,2.00
2022-07-30T06:07:04.145Z,2.13
2022-07-30T06:09:36.520Z,2.33
2022-07-30T06:12:10.004Z,1.90
2022-07-30T06:14:38.315Z,2.00
2022-07-30T06:17:06.520Z,2.10
2022-07-30T06:19:33.299Z,2.13
2022-07-30T06:22:06.160Z,1.90
2022-07-30T06:24:35.622Z,1.93
2022-07-30T06:27:02.828Z,2.00
2022-07-30T06:29:29.879Z,2.17
2022-07-30T06:31:56.732Z,2.00
2022-07-30T06:34:26.616Z,2.07
2022-07-30T06:36:53.859Z,2.00
2022-07-30T06:39:56.696Z,2.10
2022-07-30T06:42:10.653Z,2.80
2022-07-30T06:44:42.937Z,2.10
2022-07-30T06:47:09.947Z,1.70
2022-07-30T06:49:37.334Z,2.03
2022-07-30T06:52:04.884Z,2.57
2022-07-30T06:54:32.211Z,2.07
2022-07-30T06:56:59.683Z,2.30
2022-07-30T06:59:27.715Z,1.83
2022-07-30T07:01:54.607Z,2.00
2022-07-30T07:04:21.716Z,2.40
2022-07-30T07:06:49.596Z,2.17
2022-07-30T07:09:16.759Z,2.30
2022-07-30T07:11:44.831Z,2.13
2022-07-30T07:14:11.808Z,2.47
2022-07-30T07:16:39.586Z,2.23
2022-07-30T07:19:09.253Z,2.00
2022-07-30T07:21:40.647Z,2.23
2022-07-30T07:24:09.090Z,2.40
2022-07-30T07:26:36.383Z,2.13
2022-07-30T07:29:05.275Z,2.20
2022-07-30T07:32:07.209Z,2.00
2022-07-30T07:34:19.072Z,2.50
2022-07-30T07:36:48.900Z,2.50
2022-07-30T07:39:15.747Z,2.50
2022-07-30T07:41:48.719Z,2.20
2022-07-30T07:44:16.645Z,2.50
2022-07-30T07:46:44.840Z,2.47
2022-07-30T07:49:15.791Z,2.40
2022-07-30T07:51:48.709Z,2.30
2022-07-30T07:54:23.195Z,2.67
2022-07-30T07:56:56.645Z,2.57
2022-07-30T07:59:23.712Z,2.50
2022-07-30T08:02:03.841Z,2.20
2022-07-30T08:04:30.957Z,3.03
2022-07-30T08:06:57.961Z,2.60
2022-07-30T08:09:25.919Z,2.53
2022-07-30T08:12:08.262Z,2.50
2022-07-30T08:14:36.590Z,2.50
2022-07-30T08:17:03.587Z,2.60
2022-07-30T08:19:31.368Z,2.50
2022-07-30T08:22:02.002Z,3.00
2022-07-30T08:24:29.461Z,2.57
2022-07-30T08:26:57.102Z,2.73
2022-07-30T08:29:24.323Z,2.20
2022-07-30T08:31:52.185Z,2.63
2022-07-30T08:34:20.807Z,3.07
2022-07-30T08:39:52.709Z,2.70
2022-07-30T08:42:23.603Z,2.87
2022-07-30T08:44:52.358Z,2.83
2022-07-30T08:47:55.738Z,2.83
2022-07-30T08:50:22.857Z,2.37
2022-07-30T08:52:51.053Z,2.10
2022-07-30T08:55:18.540Z,2.47
2022-07-30T08:57:46.564Z,2.50
2022-07-30T09:03:01.705Z,2.33
2022-07-30T09:05:29.638Z,2.50
2022-07-30T09:07:57.966Z,2.80
2022-07-30T09:10:26.458Z,2.40
2022-07-30T09:12:53.681Z,2.30
2022-07-30T09:15:23.794Z,2.37
2022-07-30T09:17:50.853Z,2.57
2022-07-30T09:20:19.980Z,2.43
2022-07-30T09:23:04.359Z,1.97
2022-07-30T09:25:52.254Z,2.20
2022-07-30T09:28:28.465Z,1.70
2022-07-30T09:30:57.196Z,1.60
2022-07-30T09:33:36.285Z,2.20
2022-07-30T09:36:07.325Z,2.07
2022-07-30T09:38:52.010Z,2.60
2022-07-30T09:41:44.254Z,2.43
2022-07-30T09:44:11.338Z,2.67
2022-07-30T09:46:53.673Z,2.63
2022-07-30T09:49:21.946Z,3.10
2022-07-30T09:51:56.663Z,5.13
2022-07-30T09:54:51.615Z,2.20
2022-07-30T09:57:27.336Z,1.87
2022-07-30T09:59:57.591Z,1.80
2022-07-30T10:02:33.590Z,1.80
2022-07-30T10:05:15.525Z,1.87
2022-07-30T10:07:54.771Z,2.33
2022-07-30T10:10:26.252Z,2.17
2022-07-30T10:12:58.336Z,1.70
2022-07-30T10:15:27.927Z,2.20
2022-07-30T10:17:54.716Z,1.90
2022-07-30T10:20:22.764Z,1.90
2022-07-30T10:22:51.655Z,1.80
2022-07-30T10:25:20.891Z,2.13
2022-07-30T10:27:50.475Z,1.70
2022-07-30T10:30:24.931Z,2.00
2022-07-30T10:32:55.124Z,2.03
2022-07-30T10:35:34.615Z,1.90
2022-07-30T10:38:09.954Z,1.97
2022-07-30T10:41:01.862Z,2.13
2022-07-30T10:43:56.537Z,2.13
2022-07-30T10:46:51.342Z,2.30
2022-07-30T10:49:19.005Z,1.90
2022-07-30T10:52:09.528Z,2.20
2022-07-30T10:54:47.561Z,2.13
2022-07-30T10:57:31.636Z,2.27
2022-07-30T11:00:00.482Z,2.00
2022-07-30T11:02:35.811Z,2.00
2022-07-30T11:05:44.230Z,1.70
2022-07-30T11:08:35.946Z,1.93
2022-07-30T11:11:19.386Z,2.43
2022-07-30T11:13:57.952Z,2.50
2022-07-30T11:16:33.906Z,2.13
2022-07-30T11:19:55.836Z,1.93
2022-07-30T11:22:44.805Z,2.00
2022-07-30T11:25:50.221Z,2.30
2022-07-30T11:28:42.874Z,2.13
2022-07-30T11:31:56.891Z,1.80
2022-07-30T11:34:26.449Z,1.77
2022-07-30T11:37:22.087Z,1.90
2022-07-30T11:39:55.949Z,2.23
2022-07-30T11:42:30.251Z,1.53
2022-07-30T11:45:15.894Z,2.07
2022-07-30T11:47:56.224Z,1.83
2022-07-30T11:50:34.175Z,1.60
2022-07-30T11:53:03.160Z,1.60
2022-07-30T11:55:34.207Z,1.90
2022-07-30T11:58:08.504Z,1.60
2022-07-30T12:00:47.814Z,1.67
2022-07-30T12:03:17.272Z,2.00
2022-07-30T12:05:44.437Z,1.53
2022-07-30T12:08:36.006Z,1.97
2022-07-30T12:11:00.211Z,1.80
2022-07-30T12:13:45.430Z,1.60
2022-07-30T12:16:17.966Z,1.67
2022-07-30T12:18:45.477Z,1.60
2022-07-30T12:21:12.870Z,1.10
2022-07-30T12:23:39.797Z,1.67
2022-07-30T12:26:06.703Z,1.80
2022-07-30T12:28:34.877Z,1.60
2022-07-30T12:31:04.401Z,1.40
2022-07-30T12:33:31.710Z,1.53
2022-07-30T12:35:59.769Z,1.50
2022-07-30T12:38:27.448Z,1.43
2022-07-30T12:41:04.671Z,1.30
2022-07-30T12:43:52.779Z,1.30
2022-07-30T12:46:26.872Z,1.50
2022-07-30T12:49:08.202Z,1.10
2022-07-30T12:51:59.547Z,1.50
2022-07-30T12:54:28.014Z,1.30
2022-07-30T12:57:05.679Z,1.67
2022-07-30T12:59:35.462Z,1.27
2022-07-30T13:02:03.689Z,1.60
2022-07-30T13:04:38.362Z,1.50
2022-07-30T13:07:08.221Z,1.30
2022-07-30T13:09:35.526Z,2.13
2022-07-30T13:12:02.418Z,1.80
2022-07-30T13:14:29.866Z,1.80
2022-07-30T13:16:59.572Z,1.40
2022-07-30T13:19:27.045Z,1.20
2022-07-30T13:21:53.988Z,1.40
2022-07-30T13:24:21.248Z,1.23
2022-07-30T13:26:48.096Z,1.60
2022-07-30T13:29:18.930Z,1.30
2022-07-30T13:31:47.037Z,1.23
2022-07-30T13:34:13.908Z,1.30
2022-07-30T13:36:41.855Z,1.20
2022-07-30T13:39:08.704Z,1.57
2022-07-30T13:41:36.204Z,1.07
2022-07-30T13:44:03.665Z,1.03
2022-07-30T13:46:30.631Z,1.23
2022-07-30T13:48:57.723Z,1.23
2022-07-30T13:51:24.589Z,1.53
2022-07-30T13:53:51.420Z,1.50
2022-07-30T13:56:18.405Z,1.63
2022-07-30T13:58:46.949Z,1.70
2022-07-30T14:01:17.335Z,2.00
2022-07-30T14:03:48.769Z,1.60
2022-07-30T14:06:19.440Z,1.37
2022-07-30T14:08:46.277Z,1.40
2022-07-30T14:11:13.095Z,1.50
2022-07-30T14:13:40.293Z,1.63
2022-07-30T14:16:18.101Z,1.33
2022-07-30T14:18:54.441Z,1.50
2022-07-30T14:21:21.708Z,1.23
2022-07-30T14:23:48.513Z,1.43
2022-07-30T14:26:16.757Z,1.67
2022-07-30T14:28:44.818Z,1.57
2022-07-30T14:31:12.122Z,1.40
2022-07-30T14:33:39.251Z,1.30
2022-07-30T14:36:06.970Z,1.40
2022-07-30T14:38:34.056Z,1.37
2022-07-30T14:41:00.820Z,1.50
2022-07-30T14:43:28.010Z,1.40
2022-07-30T14:45:54.874Z,1.40
2022-07-30T14:48:21.686Z,1.50
2022-07-30T14:51:12.893Z,1.20
2022-07-30T14:53:37.456Z,1.27
2022-07-30T14:56:05.726Z,1.40
2022-07-30T14:58:33.773Z,1.20
2022-07-30T15:01:01.520Z,1.10
2022-07-30T15:03:42.980Z,1.10
2022-07-30T15:06:12.719Z,1.43
2022-07-30T15:08:39.615Z,1.50
2022-07-30T15:11:08.201Z,1.40
2022-07-30T15:13:38.573Z,1.30
2022-07-30T15:16:17.451Z,1.27
2022-07-30T15:18:44.986Z,1.00
2022-07-30T15:21:12.555Z,1.10
2022-07-30T15:23:39.367Z,1.10
2022-07-30T15:26:06.146Z,1.10
2022-07-30T15:28:32.956Z,1.23
2022-07-30T15:31:00.286Z,1.43
2022-07-30T15:33:28.268Z,1.20
2022-07-30T15:35:57.007Z,1.20
2022-07-30T15:38:23.868Z,1.07
2022-07-30T15:40:51.146Z,1.27
2022-07-30T15:43:18.406Z,1.13
2022-07-30T15:45:52.372Z,1.00
2022-07-30T15:48:26.986Z,1.53
2022-07-30T15:51:01.022Z,1.03
2022-07-30T15:53:27.851Z,1.00
2022-07-30T15:55:55.053Z,0.90
2022-07-30T15:58:22.196Z,1.20
2022-07-30T16:00:49.075Z,0.90
2022-07-30T16:03:17.544Z,0.90
2022-07-30T16:05:52.297Z,1.03
2022-07-30T16:08:20.745Z,1.03
2022-07-30T16:10:49.219Z,1.10
2022-07-30T16:13:17.252Z,1.20
2022-07-30T16:15:44.320Z,0.90
2022-07-30T16:18:11.283Z,1.03
2022-07-30T16:20:38.407Z,1.97
2022-07-30T16:23:10.407Z,4.37
2022-07-30T16:25:40.000Z,90.67
2022-07-30T16:28:06.836Z,152.37
2022-07-30T16:30:36.155Z,41.67
2022-07-30T16:33:17.397Z,11.40
2022-07-30T16:35:49.233Z,8.63
2022-07-30T16:38:18.511Z,3.57
2022-07-30T16:40:46.244Z,3.27
2022-07-30T16:43:16.283Z,1.57
2022-07-30T16:45:46.422Z,1.70
2022-07-30T16:48:13.893Z,3.07
2022-07-30T16:50:41.297Z,1.93
2022-07-30T16:53:13.502Z,1.73
2022-07-30T16:55:42.315Z,1.27
2022-07-30T16:58:09.373Z,1.10
2022-07-30T17:00:36.165Z,1.50
2022-07-30T17:03:03.037Z,1.63
2022-07-30T17:05:30.218Z,1.70
2022-07-30T17:07:57.111Z,1.67
2022-07-30T17:10:26.588Z,1.70
2022-07-30T17:12:54.576Z,1.60
2022-07-30T17:15:32.978Z,1.30
2022-07-30T17:18:05.682Z,1.70
2022-07-30T17:20:34.814Z,1.60
2022-07-30T17:23:02.764Z,1.50
2022-07-30T17:25:29.829Z,1.50
2022-07-30T17:27:58.223Z,1.53
2022-07-30T17:30:25.297Z,1.50
2022-07-30T17:32:52.282Z,1.50
2022-07-30T17:35:19.502Z,1.60
2022-07-30T17:37:46.644Z,1.23
2022-07-30T17:40:28.645Z,1.20
2022-07-30T17:43:06.018Z,1.13
2022-07-30T17:45:33.542Z,1.00
2022-07-30T17:48:03.816Z,1.30
2022-07-30T17:50:32.395Z,1.40
2022-07-30T17:53:03.684Z,0.83
2022-07-30T17:55:35.020Z,1.10
2022-07-30T17:58:03.897Z,0.93
2022-07-30T18:00:33.564Z,1.00
2022-07-30T18:03:00.425Z,1.13
2022-07-30T18:05:27.520Z,1.00
2022-07-30T18:07:54.758Z,1.10
2022-07-30T18:10:23.173Z,1.13
2022-07-30T18:12:51.006Z,1.00
2022-07-30T18:15:20.318Z,0.83
2022-07-30T18:17:48.829Z,0.90
2022-07-30T18:20:15.683Z,1.00
2022-07-30T18:22:43.721Z,1.13
2022-07-30T18:25:19.228Z,1.30
2022-07-30T18:27:47.325Z,1.30
2022-07-30T18:30:14.626Z,0.90
2022-07-30T18:32:42.399Z,0.73
2022-07-30T18:35:13.814Z,0.90
2022-07-30T18:37:43.043Z,0.80
2022-07-30T18:40:11.162Z,1.00
2022-07-30T18:42:38.446Z,0.80
2022-07-30T18:45:05.748Z,0.93
2022-07-30T18:47:32.819Z,0.70
2022-07-30T18:50:00.922Z,1.07
2022-07-30T18:52:27.898Z,0.80
2022-07-30T18:54:56.607Z,0.97
2022-07-30T18:57:23.392Z,0.97
2022-07-30T18:59:50.248Z,1.27
2022-07-30T19:02:17.104Z,1.00
2022-07-30T19:04:43.843Z,0.70
2022-07-30T19:07:10.712Z,0.90
2022-07-30T19:09:38.855Z,0.83
2022-07-30T19:12:06.262Z,0.90
2022-07-30T19:14:34.697Z,1.30
2022-07-30T19:17:01.539Z,0.83
2022-07-30T19:19:29.299Z,1.00
2022-07-30T19:21:57.571Z,1.10
2022-07-30T19:24:24.517Z,0.80
2022-07-30T19:26:56.119Z,0.90
2022-07-30T19:29:23.155Z,0.90
2022-07-30T19:31:50.356Z,0.90
2022-07-30T19:34:17.504Z,1.00
2022-07-30T19:36:45.878Z,1.00
2022-07-30T19:39:21.612Z,1.00
2022-07-30T19:41:51.126Z,0.77
2022-07-30T19:44:18.785Z,0.90
2022-07-30T19:46:55.867Z,0.97
2022-07-30T19:49:23.202Z,0.90
2022-07-30T19:52:17.764Z,0.80
2022-07-30T19:54:43.319Z,0.87
2022-07-30T19:57:11.587Z,0.90
2022-07-30T19:59:45.444Z,0.97
2022-07-30T20:02:25.656Z,1.23
2022-07-30T20:04:53.687Z,0.70
2022-07-30T20:07:23.256Z,1.00
2022-07-30T20:09:54.489Z,1.00
2022-07-30T20:12:21.909Z,0.90
2022-07-30T20:14:51.255Z,0.97
2022-07-30T20:17:18.519Z,1.00
2022-07-30T20:19:47.503Z,0.97
2022-07-30T20:22:15.168Z,0.90
2022-07-30T20:24:42.311Z,1.07
2022-07-30T20:27:37.235Z,0.90
2022-07-30T20:29:56.825Z,0.90
2022-07-30T20:32:24.735Z,1.13
2022-07-30T20:34:52.109Z,0.70
2022-07-30T20:37:22.241Z,1.00
2022-07-30T20:39:51.614Z,1.10
2022-07-30T20:42:19.432Z,0.90
2022-07-30T20:44:51.387Z,0.70
2022-07-30T20:47:28.233Z,0.90
2022-07-30T20:50:10.099Z,0.83
2022-07-30T20:52:40.413Z,0.70
2022-07-30T20:55:16.499Z,0.77
2022-07-30T21:00:36.854Z,0.90
2022-07-30T21:03:04.701Z,0.93
2022-07-30T21:05:31.513Z,0.90
2022-07-30T21:07:59.556Z,1.00
2022-07-30T21:10:28.012Z,0.90
2022-07-30T21:12:58.601Z,0.73
2022-07-30T21:15:33.091Z,0.97
2022-07-30T21:18:00.062Z,1.00
2022-07-30T21:20:31.418Z,1.10
2022-07-30T21:23:05.701Z,1.13
2022-07-30T21:26:00.074Z,1.00
2022-07-30T21:28:29.853Z,1.00
2022-07-30T21:31:02.650Z,1.00
2022-07-30T21:33:31.569Z,1.00
2022-07-30T21:35:59.767Z,1.20
2022-07-30T21:38:28.703Z,1.03
2022-07-30T21:40:58.034Z,0.73
2022-07-30T21:43:29.432Z,1.10
2022-07-30T21:45:57.776Z,1.07
2022-07-30T21:48:27.883Z,1.00
2022-07-30T21:50:55.950Z,1.20
2022-07-30T21:53:26.455Z,1.13
2022-07-30T21:55:57.136Z,1.17
2022-07-30T21:58:26.135Z,1.00
2022-07-30T22:00:56.699Z,1.00
2022-07-30T22:04:01.470Z,1.17
2022-07-30T22:06:12.499Z,1.57
2022-07-30T22:08:44.620Z,1.10
2022-07-30T22:11:17.638Z,0.83
2022-07-30T22:13:51.454Z,1.33
2022-07-30T22:16:22.164Z,1.30
2022-07-30T22:18:50.627Z,1.07
2022-07-30T22:21:20.345Z,1.50
2022-07-30T22:23:54.949Z,1.50
2022-07-30T22:26:26.811Z,1.10
2022-07-30T22:28:54.333Z,1.00
2022-07-30T22:31:21.452Z,1.20
2022-07-30T22:33:49.937Z,1.30
2022-07-30T22:36:24.557Z,1.20
2022-07-30T22:38:58.575Z,1.23
2022-07-30T22:41:29.324Z,1.50
2022-07-30T22:43:59.485Z,1.23
2022-07-30T22:46:31.127Z,1.40
2022-07-30T22:48:59.121Z,1.40
2022-07-30T22:52:16.919Z,1.27
2022-07-30T22:54:16.179Z,1.30
2022-07-30T22:56:46.229Z,1.10
2022-07-30T22:59:14.075Z,1.20
2022-07-30T23:01:43.491Z,1.20
2022-07-30T23:04:10.950Z,1.30
2022-07-30T23:06:38.323Z,1.20
2022-07-30T23:09:08.665Z,1.50
2022-07-30T23:11:38.839Z,1.20
2022-07-30T23:12:33.210Z,0.80
2022-07-30T23:14:09.769Z,1.17
2022-07-30T23:16:37.456Z,1.17
2022-07-30T23:19:05.322Z,1.07
2022-07-30T23:21:32.946Z,1.40
2022-07-30T23:23:59.789Z,1.10
2022-07-30T23:26:26.967Z,1.33
2022-07-30T23:28:53.834Z,1.23
2022-07-30T23:31:23.951Z,1.50
2022-07-30T23:33:54.804Z,1.30
2022-07-30T23:36:22.555Z,1.37
2022-07-30T23:38:52.332Z,1.17
2022-07-30T23:41:29.657Z,1.40
2022-07-30T23:43:57.392Z,1.10
2022-07-30T23:46:24.201Z,1.10
2022-07-30T23:48:51.033Z,1.30
2022-07-30T23:51:17.908Z,1.20
2022-07-30T23:53:45.269Z,1.20
2022-07-30T23:56:15.816Z,1.23
2022-07-30T23:59:04.124Z,1.27
